CLEVELAND ARTCC (ZOB) FACILITY RUNWAY SELECTOR
METARS UPDATED AT 1135Z

Page auto refreshed every 5 minutes
FACILITYWINDVISIBILITY
CEILING
RUNWAY FLOWAPPROACHMETAR
KAGC180@0810SM
----
East Flow
DEP: 10, 13 (GA)
ARR: 10 , 13 (GA)
Visual ApproachKAGC 211053Z 18008KT 10SM SCT050 21/19 A3009 RMK AO2 SLP185 T02110194
KBKL190@16/G2610SM
----
24 Flow
DEP: 24L (GA), 24R
ARR: 24L (GA), 24R
Visual ApproachKBKL 211053Z 19016G26KT 10SM CLR 27/19 A2994 RMK AO2 PK WND 20028/1030 SLP132 T02720189
KBUF190@1210SM
----
23 Flow
DEP: 23
ARR: 23
Visual ApproachKBUF 211054Z 19012KT 10SM FEW070 SCT250 23/19 A2993 RMK AO2 SLP133 T02330194
KCAK190@0810SM
----
South Flow
DEP: 19
ARR: 23
Visual ApproachKCAK 211051Z 19008KT 10SM SCT140 23/20 A3003 RMK AO2 SLP157 T02330200
KCGF200@12/G2120SM
BKN120
24 Flow
DEP: 24
ARR: 24
Visual ApproachKCGF 211045Z 20012G21KT 20SM SCT075 BKN120 26/21 A2997
KCLE200@1410SM
----
North Flow
DEP: 24L
ARR: 24R
Visual ApproachKCLE 211051Z 20014KT 10SM FEW100 SCT140 25/21 A2998 RMK AO2 SLP144 T02500206
KDTW200@118SM
BKN250
South Flow
DEP: 21R, 22L
ARR: 21L, 22R
Visual ApproachKDTW 211053Z 20011KT 8SM FEW150 BKN250 23/19 A2986 RMK AO2 SLP105 T02330189
KERI180@13/G2110SM
----
West Flow
DEP: 20 (GA), 24
ARR: 20 (GA), 24
Visual ApproachKERI 211051Z 18013G21KT 10SM SCT100 24/20 A2996 RMK AO2 SLP141 T02440200
KFNT200@10/G1710SM
----
18 Flow
DEP: 18
ARR: 18
Visual ApproachKFNT 211053Z 20010G17KT 10SM CLR 24/19 A2979 RMK AO2 SLP082 T02390194
KIAG200@16/G2110SM
----
North Flow
DEP: 24 (GA), 28R
ARR: 24 (GA), 28R
Visual ApproachKIAG 211053Z 20016G21KT 10SM CLR 23/19 A2990 RMK AO2 SLP123 T02280194
KJST180@087SM
----
15 Flow
DEP: 15
ARR: 15
Visual ApproachKJST 211054Z 18008KT 7SM CLR 20/19 A3018 RMK AO2 SLP205 T02000189
KLAN200@15/G2110SM
----
18 Flow
DEP: 18
ARR: 18
Visual ApproachKLAN 211053Z 20015G21KT 10SM CLR 24/19 A2978 RMK AO2 SLP079 T02440194
KPIT170@0510SM
BKN250
Calm Wind Flow
DEP: 28R, 28C
ARR: 28R, 28L, 32 (GA)
Visual ApproachKPIT 211051Z 17005KT 10SM FEW055 SCT150 BKN250 21/19 A3008 RMK AO2 SLP182 T02060194
KROC220@12/G2010SM
BKN100
22/25 Flow
DEP: 22, 25 (GA)
ARR: 22, 25 (GA)
Visual ApproachKROC 211054Z 22012G20KT 10SM FEW025 SCT070 BKN100 BKN250 23/19 A2996 RMK AO2 SLP144 TCU DSNT NE-E T02330194
KTOL210@11/G2010SM
----
25 Flow
DEP: 25
ARR: 25
Visual ApproachKTOL 211052Z 21011G20KT 10SM CLR 26/19 A2988 RMK AO2 SLP111 T02560189
KYNG180@0910SM
BKN140
14 Flow
DEP: 14
ARR: 14
Visual ApproachKYNG 211051Z 18009KT 10SM BKN140 BKN250 23/21 A3003 RMK AO2 SLP159 T02280206
NOTE: Runway selection based on current VATSIM metar and ZOB SOPs.
Ceiling = Lowest reported ceiling.
GA = General Aviation aircraft only.
METAR Decode Key